createdAt,value
2018-01-15T00:00:17.731Z,14.2
2018-01-15T00:01:19.385Z,13.9
2018-01-15T00:02:21.041Z,15.4
2018-01-15T00:03:22.690Z,15.7
2018-01-15T00:04:24.348Z,14.3
2018-01-15T00:05:25.998Z,14.7
2018-01-15T00:06:27.648Z,14.5
2018-01-15T00:07:29.300Z,14.9
2018-01-15T00:08:30.946Z,14.8
2018-01-15T00:09:32.612Z,15.4
2018-01-15T00:10:34.258Z,16.1
2018-01-15T00:11:35.911Z,16.5
2018-01-15T00:12:37.565Z,15.9
2018-01-15T00:13:39.224Z,16.4
2018-01-15T00:14:40.879Z,16.9
2018-01-15T00:15:42.530Z,15.5
2018-01-15T00:16:44.186Z,16.3
2018-01-15T00:17:45.840Z,16.0
2018-01-15T00:18:47.484Z,16.7
2018-01-15T00:19:49.137Z,15.5
2018-01-15T00:20:50.812Z,16.8
2018-01-15T00:21:52.458Z,16.7
2018-01-15T00:22:54.103Z,16.8
2018-01-15T00:23:55.757Z,16.3
2018-01-15T00:24:57.401Z,17.4
2018-01-15T00:25:59.066Z,17.1
2018-01-15T00:27:00.713Z,16.7
2018-01-15T00:28:02.367Z,16.3
2018-01-15T00:29:04.015Z,17.2
2018-01-15T00:30:05.662Z,16.6
2018-01-15T00:31:07.309Z,16.4
2018-01-15T00:32:08.958Z,16.6
2018-01-15T00:33:10.611Z,16.9
2018-01-15T00:34:12.268Z,16.5
2018-01-15T00:35:13.917Z,16.6
2018-01-15T00:36:15.579Z,16.1
2018-01-15T00:37:17.222Z,15.3
2018-01-15T00:38:18.876Z,16.9
2018-01-15T00:39:20.529Z,16.1
2018-01-15T00:40:22.189Z,16.6
2018-01-15T00:41:23.848Z,15.9
2018-01-15T00:42:25.498Z,16.6
2018-01-15T00:43:27.153Z,17.4
2018-01-15T00:44:28.843Z,16.6
2018-01-15T00:45:30.495Z,17.0
2018-01-15T00:46:32.142Z,18.3
2018-01-15T00:47:33.803Z,17.2
2018-01-15T00:48:35.464Z,17.8
2018-01-15T00:49:37.114Z,16.8
2018-01-15T00:50:38.772Z,17.0
2018-01-15T00:51:40.421Z,17.9
2018-01-15T00:52:42.064Z,17.6
2018-01-15T00:53:43.715Z,17.7
2018-01-15T00:54:45.368Z,16.4
2018-01-15T00:55:47.026Z,17.8
2018-01-15T00:56:48.690Z,17.5
2018-01-15T00:57:50.337Z,16.8
2018-01-15T00:58:51.990Z,17.9
2018-01-15T00:59:53.636Z,17.0
2018-01-15T01:00:55.291Z,17.0
2018-01-15T01:01:56.941Z,17.6
2018-01-15T01:02:58.593Z,18.1
2018-01-15T01:04:00.250Z,18.3
2018-01-15T01:05:01.897Z,16.7
2018-01-15T01:06:03.540Z,17.8
2018-01-15T01:07:05.188Z,17.9
2018-01-15T01:08:06.839Z,18.3
2018-01-15T01:09:08.482Z,18.1
2018-01-15T01:10:10.129Z,17.8
2018-01-15T01:11:11.779Z,18.1
2018-01-15T01:12:13.429Z,17.6
2018-01-15T01:13:15.086Z,17.0
2018-01-15T01:14:16.742Z,16.1
2018-01-15T01:15:18.386Z,17.7
2018-01-15T01:16:20.041Z,16.0
2018-01-15T01:17:21.697Z,18.7
2018-01-15T01:18:23.349Z,17.2
2018-01-15T01:19:25.000Z,18.3
2018-01-15T01:20:26.648Z,17.6
2018-01-15T01:21:28.296Z,17.1
2018-01-15T01:22:29.954Z,17.6
2018-01-15T01:23:31.595Z,18.4
2018-01-15T01:24:33.250Z,18.3
2018-01-15T01:25:34.906Z,18.6
2018-01-15T01:26:36.562Z,19.0
2018-01-15T01:27:38.220Z,19.2
2018-01-15T01:28:39.873Z,18.8
2018-01-15T01:29:41.531Z,18.3
2018-01-15T01:30:43.182Z,18.5
2018-01-15T01:31:44.845Z,19.1
2018-01-15T01:32:46.496Z,18.6
2018-01-15T01:33:48.140Z,19.0
2018-01-15T01:34:49.792Z,17.8
2018-01-15T01:35:51.435Z,19.0
2018-01-15T01:36:53.102Z,17.5
2018-01-15T01:37:54.750Z,19.8
2018-01-15T01:38:56.404Z,17.8
2018-01-15T01:39:58.060Z,18.6
2018-01-15T01:40:59.710Z,19.6
2018-01-15T01:42:01.353Z,18.2
2018-01-15T01:43:03.004Z,17.6
2018-01-15T01:44:04.665Z,17.8
2018-01-15T01:45:06.325Z,19.0
2018-01-15T01:46:07.982Z,19.3
2018-01-15T01:47:09.638Z,19.1
2018-01-15T01:48:11.291Z,16.6
2018-01-15T01:49:12.938Z,17.3
2018-01-15T01:50:14.588Z,17.5
2018-01-15T01:51:16.237Z,17.9
2018-01-15T01:52:17.901Z,17.9
2018-01-15T01:53:19.559Z,19.1
2018-01-15T01:54:21.207Z,18.0
2018-01-15T01:55:22.864Z,17.2
2018-01-15T01:56:24.520Z,17.9
2018-01-15T01:57:26.170Z,18.0
2018-01-15T01:58:27.820Z,17.6
2018-01-15T01:59:30.044Z,16.4
2018-01-15T02:00:31.705Z,17.4
2018-01-15T02:01:33.356Z,17.8
2018-01-15T02:02:35.011Z,17.6
2018-01-15T02:03:36.655Z,17.5
2018-01-15T02:04:38.314Z,19.0
2018-01-15T02:05:39.970Z,18.7
2018-01-15T02:06:41.618Z,18.1
2018-01-15T02:07:43.266Z,18.6
2018-01-15T02:08:44.965Z,17.7
2018-01-15T02:09:46.620Z,18.1
2018-01-15T02:10:48.266Z,17.3
2018-01-15T02:11:49.920Z,17.3
2018-01-15T02:12:51.570Z,18.0
2018-01-15T02:13:53.230Z,18.2
2018-01-15T02:14:54.922Z,17.9
2018-01-15T02:15:56.535Z,16.4
2018-01-15T02:16:58.190Z,17.6
2018-01-15T02:17:59.842Z,17.6
2018-01-15T02:19:01.500Z,18.5
2018-01-15T02:20:03.158Z,17.5
2018-01-15T02:21:04.804Z,17.7
2018-01-15T02:22:06.459Z,17.3
2018-01-15T02:23:08.116Z,17.3
2018-01-15T02:24:09.761Z,17.3
2018-01-15T02:25:11.406Z,17.8
2018-01-15T02:26:13.058Z,17.3
2018-01-15T02:27:14.714Z,16.3
2018-01-15T02:28:16.363Z,16.7
2018-01-15T02:29:18.027Z,17.4
2018-01-15T02:30:19.685Z,17.6
2018-01-15T02:31:21.331Z,16.8
2018-01-15T02:32:22.985Z,17.8
2018-01-15T02:33:24.636Z,17.1
2018-01-15T02:34:26.343Z,18.3
2018-01-15T02:35:27.996Z,18.0
2018-01-15T02:36:29.645Z,16.3
2018-01-15T02:37:31.302Z,17.3
2018-01-15T02:38:32.961Z,17.5
2018-01-15T02:39:34.618Z,17.0
2018-01-15T02:40:36.268Z,17.1
2018-01-15T02:41:37.921Z,17.5
2018-01-15T02:42:39.568Z,16.8
2018-01-15T02:43:41.230Z,17.8
2018-01-15T02:44:42.880Z,15.8
2018-01-15T02:45:44.525Z,17.7
2018-01-15T02:46:46.174Z,16.9
2018-01-15T02:47:47.834Z,17.1
2018-01-15T02:48:49.497Z,17.7
2018-01-15T02:49:51.141Z,18.8
2018-01-15T02:50:52.788Z,17.0
2018-01-15T02:51:54.440Z,17.9
2018-01-15T02:52:56.083Z,17.9
2018-01-15T02:53:57.749Z,18.1
2018-01-15T02:54:59.400Z,18.0
2018-01-15T03:01:19.377Z,15.0
2018-01-15T03:02:21.023Z,15.8
2018-01-15T03:03:22.666Z,17.6
2018-01-15T03:04:24.316Z,18.6
2018-01-15T03:05:25.964Z,18.1
2018-01-15T03:06:27.616Z,17.7
2018-01-15T03:07:29.264Z,17.6
2018-01-15T03:08:30.922Z,18.6
2018-01-15T03:09:32.576Z,18.7
2018-01-15T03:10:34.217Z,18.0
2018-01-15T03:11:35.870Z,18.8
2018-01-15T03:12:37.518Z,18.2
2018-01-15T03:13:39.172Z,17.6
2018-01-15T03:14:40.823Z,17.9
2018-01-15T03:15:42.483Z,18.4
2018-01-15T03:16:44.125Z,19.1
2018-01-15T03:17:45.778Z,19.9
2018-01-15T03:18:47.432Z,19.5
2018-01-15T03:19:49.080Z,18.8
2018-01-15T03:20:50.725Z,18.9
2018-01-15T03:21:52.458Z,19.3
2018-01-15T03:22:54.124Z,17.1
2018-01-15T03:23:55.768Z,17.7
2018-01-15T03:24:57.410Z,18.3
2018-01-15T03:25:59.068Z,17.8
2018-01-15T03:27:00.717Z,19.3
2018-01-15T03:28:02.370Z,17.7
2018-01-15T03:29:04.027Z,17.6
2018-01-15T03:30:05.676Z,18.5
2018-01-15T03:31:07.327Z,18.4
2018-01-15T03:32:08.978Z,18.4
2018-01-15T03:33:10.629Z,17.6
2018-01-15T03:34:12.287Z,19.1
2018-01-15T03:35:13.937Z,18.1
2018-01-15T03:36:15.589Z,17.8
2018-01-15T03:37:17.241Z,18.8
2018-01-15T03:38:18.894Z,18.0
2018-01-15T03:39:20.538Z,19.2
2018-01-15T03:40:22.191Z,18.3
2018-01-15T03:41:23.844Z,18.9
2018-01-15T03:42:25.496Z,17.8
2018-01-15T03:43:27.149Z,17.8
2018-01-15T03:44:28.792Z,18.0
2018-01-15T03:45:30.439Z,17.9
2018-01-15T03:46:32.094Z,18.3
2018-01-15T03:47:33.745Z,18.5
2018-01-15T03:48:35.401Z,18.6
2018-01-15T03:49:37.056Z,18.0
2018-01-15T03:50:38.702Z,18.9
2018-01-15T03:51:40.350Z,19.6
2018-01-15T03:52:42.028Z,19.1
2018-01-15T03:53:43.676Z,19.9
2018-01-15T03:54:45.313Z,18.9
2018-01-15T03:55:46.964Z,20.1
2018-01-15T03:56:48.616Z,18.9
2018-01-15T03:57:50.258Z,19.7
2018-01-15T03:58:51.920Z,19.6
2018-01-15T03:59:53.573Z,18.0
2018-01-15T04:00:55.228Z,19.3
2018-01-15T04:01:56.882Z,18.8
2018-01-15T04:02:58.524Z,17.9
2018-01-15T04:04:00.176Z,18.4
2018-01-15T04:05:01.853Z,19.6
2018-01-15T04:06:03.504Z,19.5
2018-01-15T04:07:05.149Z,19.9
2018-01-15T04:08:06.791Z,19.3
2018-01-15T04:09:08.446Z,19.9
2018-01-15T04:10:10.098Z,19.8
2018-01-15T04:11:11.731Z,19.1
2018-01-15T04:12:13.389Z,19.7
2018-01-15T04:13:15.709Z,20.0
2018-01-15T04:14:17.360Z,19.6
2018-01-15T04:15:19.010Z,19.0
2018-01-15T04:16:20.662Z,19.3
2018-01-15T04:17:22.309Z,18.8
2018-01-15T04:18:23.964Z,20.1
2018-01-15T04:19:25.615Z,19.2
2018-01-15T04:20:27.261Z,20.4
2018-01-15T04:21:28.912Z,20.8
2018-01-15T04:22:30.554Z,20.3
2018-01-15T04:23:32.204Z,18.6
2018-01-15T04:24:33.857Z,19.6
2018-01-15T04:25:35.544Z,20.1
2018-01-15T04:26:37.208Z,18.6
2018-01-15T04:27:38.894Z,19.8
2018-01-15T04:28:40.544Z,20.2
2018-01-15T04:29:42.196Z,20.1
2018-01-15T04:30:43.841Z,19.8
2018-01-15T04:31:45.487Z,20.0
2018-01-15T04:32:47.142Z,19.0
2018-01-15T04:33:48.785Z,19.0
2018-01-15T04:34:50.437Z,20.8
2018-01-15T04:35:52.116Z,20.3
2018-01-15T04:36:53.757Z,19.1
2018-01-15T04:37:55.408Z,20.3
2018-01-15T04:38:57.060Z,20.5
2018-01-15T04:39:58.707Z,19.7
2018-01-15T04:41:00.350Z,20.6
2018-01-15T04:42:02.001Z,20.7
2018-01-15T04:43:03.651Z,20.5
2018-01-15T04:44:05.300Z,21.1
2018-01-15T04:45:06.938Z,19.1
2018-01-15T04:46:08.589Z,21.0
2018-01-15T04:47:10.277Z,20.4
2018-01-15T04:48:11.931Z,20.3
2018-01-15T04:49:13.642Z,18.7
2018-01-15T04:50:15.275Z,18.2
2018-01-15T04:51:16.922Z,20.5
2018-01-15T04:52:18.578Z,19.2
2018-01-15T04:53:20.224Z,20.3
2018-01-15T04:54:21.872Z,19.0
2018-01-15T04:55:23.516Z,19.5
2018-01-15T04:56:25.160Z,19.9
2018-01-15T04:57:26.814Z,18.6
2018-01-15T04:58:28.455Z,20.4
2018-01-15T04:59:30.105Z,19.9
2018-01-15T05:00:31.759Z,20.7
2018-01-15T05:01:33.415Z,18.8
2018-01-15T05:02:35.066Z,20.7
2018-01-15T05:03:36.740Z,21.1
2018-01-15T05:04:38.390Z,21.7
2018-01-15T05:05:40.042Z,20.3
2018-01-15T05:06:41.695Z,19.3
2018-01-15T05:07:43.348Z,18.9
2018-01-15T05:08:45.002Z,20.2
2018-01-15T05:09:46.652Z,20.8
2018-01-15T05:10:48.302Z,19.4
2018-01-15T05:11:50.013Z,20.3
2018-01-15T05:12:51.651Z,20.4
2018-01-15T05:13:53.301Z,19.9
2018-01-15T05:14:54.939Z,20.7
2018-01-15T05:15:56.600Z,20.0
2018-01-15T05:16:58.254Z,20.6
2018-01-15T05:17:59.895Z,20.3
2018-01-15T05:19:01.549Z,21.1
2018-01-15T05:20:03.192Z,20.6
2018-01-15T05:21:04.845Z,20.2
2018-01-15T05:22:06.498Z,20.8
2018-01-15T05:23:08.140Z,21.1
2018-01-15T05:24:09.792Z,20.6
2018-01-15T05:25:11.447Z,20.7
2018-01-15T05:26:13.128Z,20.1
2018-01-15T05:27:14.776Z,20.7
2018-01-15T05:28:16.424Z,20.2
2018-01-15T05:29:18.133Z,18.6
2018-01-15T05:30:19.773Z,20.0
2018-01-15T05:31:21.446Z,21.5
2018-01-15T05:32:23.159Z,20.4
2018-01-15T05:33:24.804Z,20.7
2018-01-15T05:34:26.448Z,20.4
2018-01-15T05:35:28.111Z,20.6
2018-01-15T05:36:29.766Z,20.3
2018-01-15T05:37:31.409Z,20.2
2018-01-15T05:38:33.063Z,21.0
2018-01-15T05:39:34.726Z,20.4
2018-01-15T05:40:36.368Z,21.7
2018-01-15T05:41:38.015Z,20.5
2018-01-15T05:42:39.664Z,21.4
2018-01-15T05:43:41.323Z,19.9
2018-01-15T05:44:42.966Z,21.2
2018-01-15T05:45:44.619Z,21.5
2018-01-15T05:46:46.260Z,20.9
2018-01-15T05:47:47.914Z,21.9
2018-01-15T05:48:49.569Z,20.1
2018-01-15T05:49:51.213Z,19.9
2018-01-15T05:50:52.868Z,20.6
2018-01-15T05:51:54.529Z,21.2
2018-01-15T05:52:56.175Z,21.6
2018-01-15T05:53:57.829Z,22.0
2018-01-15T05:54:59.473Z,20.2
2018-01-15T05:56:01.124Z,22.5
2018-01-15T05:57:02.775Z,20.9
2018-01-15T05:58:04.424Z,21.4
2018-01-15T05:59:06.081Z,22.3
2018-01-15T06:00:07.730Z,20.4
2018-01-15T06:01:09.392Z,22.7
2018-01-15T06:02:11.042Z,22.9
2018-01-15T06:03:12.743Z,22.0
2018-01-15T06:04:14.895Z,21.7
2018-01-15T06:05:16.543Z,21.0
2018-01-15T06:06:18.239Z,22.3
2018-01-15T06:07:19.883Z,21.9
2018-01-15T06:08:21.540Z,22.5
2018-01-15T06:09:23.187Z,22.8
2018-01-15T06:10:24.835Z,22.0
2018-01-15T06:11:26.482Z,21.3
2018-01-15T06:12:28.135Z,22.2
2018-01-15T06:13:29.784Z,23.1
2018-01-15T06:14:31.439Z,23.5
2018-01-15T06:15:33.095Z,21.8
2018-01-15T06:16:34.738Z,23.7
2018-01-15T06:17:36.406Z,21.6
2018-01-15T06:18:38.054Z,21.7
2018-01-15T06:19:39.765Z,23.0
2018-01-15T06:20:41.415Z,23.6
2018-01-15T06:21:43.071Z,24.2
2018-01-15T06:22:44.719Z,24.3
2018-01-15T06:23:46.367Z,23.8
2018-01-15T06:24:48.017Z,21.6
2018-01-15T06:25:49.676Z,22.0
2018-01-15T06:26:51.324Z,23.3
2018-01-15T06:27:52.978Z,23.0
2018-01-15T06:28:54.628Z,21.8
2018-01-15T06:29:56.287Z,23.0
2018-01-15T06:30:57.926Z,22.0
2018-01-15T06:31:59.592Z,22.8
2018-01-15T06:33:01.259Z,22.6
2018-01-15T06:34:02.932Z,21.9
2018-01-15T06:35:04.926Z,23.6
2018-01-15T06:36:06.572Z,25.6
2018-01-15T06:37:08.821Z,26.0
2018-01-15T06:38:10.574Z,25.4
2018-01-15T06:39:12.213Z,23.0
2018-01-15T06:40:13.854Z,24.4
2018-01-15T06:41:15.505Z,23.3
2018-01-15T06:42:17.158Z,23.0
2018-01-15T06:43:18.795Z,23.3
2018-01-15T06:44:20.473Z,24.3
2018-01-15T06:45:22.121Z,23.4
2018-01-15T06:46:23.773Z,23.1
2018-01-15T06:47:25.412Z,24.4
2018-01-15T06:48:27.064Z,23.4
2018-01-15T06:49:28.713Z,23.1
2018-01-15T06:50:30.361Z,23.6
2018-01-15T06:51:32.010Z,25.2
2018-01-15T06:52:33.650Z,25.0
2018-01-15T06:53:35.307Z,25.4
2018-01-15T06:54:36.963Z,24.2
2018-01-15T07:00:58.288Z,21.6
2018-01-15T07:01:59.952Z,20.8
2018-01-15T07:03:01.598Z,22.8
2018-01-15T07:04:03.256Z,24.1
2018-01-15T07:05:04.904Z,22.3
2018-01-15T07:06:06.549Z,23.9
2018-01-15T07:07:08.202Z,25.5
2018-01-15T07:08:09.850Z,25.6
2018-01-15T07:09:11.522Z,23.8
2018-01-15T07:10:13.167Z,25.7
2018-01-15T07:11:14.828Z,25.0
2018-01-15T07:12:16.480Z,25.9
2018-01-15T07:13:18.124Z,27.0
2018-01-15T07:14:19.772Z,25.1
2018-01-15T07:15:21.448Z,26.5
2018-01-15T07:16:23.115Z,24.6
2018-01-15T07:17:24.754Z,26.0
2018-01-15T07:18:26.406Z,26.3
2018-01-15T07:19:28.067Z,25.3
2018-01-15T07:20:29.715Z,25.4
2018-01-15T07:21:31.373Z,26.9
2018-01-15T07:22:33.027Z,25.0
2018-01-15T07:23:34.746Z,25.2
2018-01-15T07:24:36.567Z,24.4
2018-01-15T07:25:38.213Z,26.1
2018-01-15T07:26:39.869Z,26.0
2018-01-15T07:27:41.524Z,25.4
2018-01-15T07:28:43.184Z,25.9
2018-01-15T07:29:44.840Z,27.8
2018-01-15T07:30:46.506Z,26.3
2018-01-15T07:31:48.152Z,25.6
2018-01-15T07:32:49.805Z,26.1
2018-01-15T07:33:51.464Z,26.7
2018-01-15T07:34:53.120Z,26.3
2018-01-15T07:35:54.763Z,27.2
2018-01-15T07:36:56.420Z,26.9
2018-01-15T07:37:58.065Z,24.9
2018-01-15T07:38:59.718Z,26.1
2018-01-15T07:40:01.394Z,26.5
2018-01-15T07:41:03.034Z,25.4
2018-01-15T07:42:04.702Z,26.5
2018-01-15T07:43:06.353Z,25.9
2018-01-15T07:44:08.002Z,26.5
2018-01-15T07:45:09.649Z,26.9
2018-01-15T07:46:11.300Z,25.8
2018-01-15T07:47:12.966Z,26.1
2018-01-15T07:48:14.619Z,26.8
2018-01-15T07:49:16.267Z,27.5
2018-01-15T07:50:17.968Z,25.0
2018-01-15T07:51:19.582Z,25.7
2018-01-15T07:52:21.253Z,26.7
2018-01-15T07:53:22.904Z,24.7
2018-01-15T07:54:24.552Z,24.2
2018-01-15T07:55:26.272Z,25.9
2018-01-15T07:56:27.923Z,26.0
2018-01-15T07:57:29.575Z,26.8
2018-01-15T07:58:31.227Z,25.0
2018-01-15T07:59:32.914Z,25.4
2018-01-15T08:00:34.573Z,26.0
2018-01-15T08:01:36.218Z,26.7
2018-01-15T08:02:37.859Z,25.4
2018-01-15T08:03:39.526Z,23.8
2018-01-15T08:04:41.205Z,25.2
2018-01-15T08:05:42.856Z,25.7
2018-01-15T08:06:44.523Z,26.8
2018-01-15T08:07:46.187Z,30.3
2018-01-15T08:08:47.839Z,28.2
2018-01-15T08:09:49.493Z,30.5
2018-01-15T08:10:51.141Z,29.5
2018-01-15T08:11:52.798Z,27.8
2018-01-15T08:12:54.451Z,24.9
2018-01-15T08:13:56.101Z,26.0
2018-01-15T08:14:57.746Z,27.1
2018-01-15T08:15:59.425Z,28.1
2018-01-15T08:17:01.122Z,26.2
2018-01-15T08:18:02.775Z,27.4
2018-01-15T08:19:04.425Z,27.7
2018-01-15T08:20:06.085Z,29.3
2018-01-15T08:21:07.758Z,27.4
2018-01-15T08:22:09.503Z,28.6
2018-01-15T08:23:11.154Z,25.3
2018-01-15T08:24:12.800Z,24.2
2018-01-15T08:25:14.463Z,26.4
2018-01-15T08:26:16.115Z,27.9
2018-01-15T08:27:17.786Z,26.1
2018-01-15T08:28:19.450Z,27.8
2018-01-15T08:29:21.129Z,29.5
2018-01-15T08:30:22.761Z,29.6
2018-01-15T08:31:24.446Z,28.9
2018-01-15T08:32:26.106Z,28.7
2018-01-15T08:33:27.763Z,27.5
2018-01-15T08:34:29.416Z,27.1
2018-01-15T08:35:31.058Z,29.7
2018-01-15T08:36:32.723Z,27.7
2018-01-15T08:37:34.382Z,26.6
2018-01-15T08:38:36.093Z,27.7
2018-01-15T08:39:37.747Z,27.6
2018-01-15T08:40:39.397Z,26.2
2018-01-15T08:41:41.054Z,25.6
2018-01-15T08:42:42.715Z,27.1
2018-01-15T08:43:44.357Z,26.6
2018-01-15T08:44:46.004Z,26.9
2018-01-15T08:45:47.656Z,26.8
2018-01-15T08:46:49.311Z,27.7
2018-01-15T08:47:50.974Z,28.4
2018-01-15T08:48:52.627Z,28.7
2018-01-15T08:49:54.284Z,27.5
2018-01-15T08:50:55.935Z,28.5
2018-01-15T08:51:57.589Z,28.0
2018-01-15T08:52:59.256Z,27.9
2018-01-15T08:54:00.906Z,27.3
2018-01-15T08:55:02.565Z,24.1
2018-01-15T08:56:04.237Z,26.5
2018-01-15T08:57:05.901Z,29.0
2018-01-15T08:58:07.551Z,30.9
2018-01-15T08:59:09.288Z,29.6
2018-01-15T09:00:10.960Z,31.6
2018-01-15T09:01:12.615Z,28.5
2018-01-15T09:02:14.264Z,27.7
2018-01-15T09:03:15.917Z,27.2
2018-01-15T09:04:17.570Z,27.5
2018-01-15T09:05:19.219Z,30.0
2018-01-15T09:06:20.876Z,28.9
2018-01-15T09:07:22.546Z,28.6
2018-01-15T09:08:24.198Z,27.7
2018-01-15T09:09:25.850Z,27.3
2018-01-15T09:10:27.553Z,26.3
2018-01-15T09:11:29.205Z,27.8
2018-01-15T09:12:30.859Z,26.6
2018-01-15T09:13:32.506Z,27.5
2018-01-15T09:14:34.161Z,27.5
2018-01-15T09:15:35.824Z,27.8
2018-01-15T09:16:37.475Z,27.5
2018-01-15T09:17:39.143Z,26.1
2018-01-15T09:18:40.786Z,26.2
2018-01-15T09:19:42.429Z,26.9
2018-01-15T09:20:44.074Z,27.7
2018-01-15T09:21:45.731Z,27.9
2018-01-15T09:22:47.386Z,26.3
2018-01-15T09:23:49.056Z,28.8
2018-01-15T09:24:50.733Z,29.0
2018-01-15T09:25:52.372Z,28.6
2018-01-15T09:26:54.040Z,27.4
2018-01-15T09:27:55.687Z,28.2
2018-01-15T09:28:57.340Z,28.3
2018-01-15T09:29:58.997Z,29.5
2018-01-15T09:31:00.728Z,26.9
2018-01-15T09:32:02.430Z,26.7
2018-01-15T09:33:04.086Z,27.9
2018-01-15T09:34:05.778Z,28.5
2018-01-15T09:35:07.484Z,26.8
2018-01-15T09:36:09.136Z,27.2
2018-01-15T09:37:10.782Z,28.6
2018-01-15T09:38:12.449Z,28.1
2018-01-15T09:39:14.103Z,28.8
2018-01-15T09:40:15.783Z,29.0
2018-01-15T09:41:17.437Z,27.4
2018-01-15T09:42:19.082Z,28.6
2018-01-15T09:43:20.748Z,31.5
2018-01-15T09:44:22.400Z,29.6
2018-01-15T09:45:24.058Z,27.7
2018-01-15T09:46:25.711Z,30.8
2018-01-15T09:47:27.368Z,27.1
2018-01-15T09:48:29.023Z,30.2
2018-01-15T09:49:30.682Z,28.9
2018-01-15T09:50:32.334Z,27.3
2018-01-15T09:51:33.996Z,27.6
2018-01-15T09:52:35.644Z,25.3
2018-01-15T09:53:37.302Z,28.8
2018-01-15T09:54:38.952Z,28.9
2018-01-15T09:55:40.606Z,28.8
2018-01-15T09:56:42.270Z,28.2
2018-01-15T09:57:43.925Z,27.6
2018-01-15T09:58:45.575Z,28.8
2018-01-15T09:59:47.248Z,28.1
2018-01-15T10:00:48.897Z,28.2
2018-01-15T10:01:50.562Z,28.2
2018-01-15T10:02:52.206Z,29.6
2018-01-15T10:03:53.865Z,29.7
2018-01-15T10:04:55.583Z,30.4
2018-01-15T10:05:57.243Z,29.0
2018-01-15T10:06:58.896Z,31.2
2018-01-15T10:08:00.553Z,29.0
2018-01-15T10:09:02.217Z,29.7
2018-01-15T10:10:03.872Z,30.0
2018-01-15T10:11:05.526Z,27.1
2018-01-15T10:12:07.178Z,28.7
2018-01-15T10:13:08.827Z,28.6
2018-01-15T10:14:10.475Z,29.5
2018-01-15T10:15:12.125Z,28.2
2018-01-15T10:16:13.812Z,29.1
2018-01-15T10:17:15.459Z,29.1
2018-01-15T10:18:17.117Z,29.6
2018-01-15T10:19:18.771Z,29.9
2018-01-15T10:20:20.440Z,28.2
2018-01-15T10:21:22.085Z,30.7
2018-01-15T10:22:23.737Z,31.6
2018-01-15T10:23:25.398Z,29.6
2018-01-15T10:24:27.071Z,28.7
2018-01-15T10:25:28.723Z,30.0
2018-01-15T10:26:30.382Z,26.9
2018-01-15T10:27:32.026Z,28.8
2018-01-15T10:28:33.690Z,30.8
2018-01-15T10:29:35.346Z,27.9
2018-01-15T10:30:36.994Z,29.6
2018-01-15T10:31:38.677Z,29.6
2018-01-15T10:32:40.346Z,30.3
2018-01-15T10:33:42.493Z,29.3
2018-01-15T10:34:44.302Z,29.0
2018-01-15T10:35:46.016Z,29.8
2018-01-15T10:36:48.773Z,30.4
2018-01-15T10:37:50.847Z,28.9
2018-01-15T10:38:52.492Z,27.0
2018-01-15T10:39:54.152Z,29.5
2018-01-15T10:40:55.819Z,29.1
2018-01-15T10:41:57.533Z,29.8
2018-01-15T10:42:59.194Z,33.1
2018-01-15T10:44:00.853Z,30.2
2018-01-15T10:45:02.508Z,31.5
2018-01-15T10:46:04.151Z,33.4
2018-01-15T10:47:05.866Z,32.0
2018-01-15T10:48:07.514Z,32.7
2018-01-15T10:49:09.228Z,29.3
2018-01-15T10:50:10.916Z,30.9
2018-01-15T10:51:12.573Z,30.0
2018-01-15T10:52:14.231Z,31.0
2018-01-15T10:53:15.888Z,30.9
2018-01-15T10:54:17.730Z,29.4
2018-01-15T10:55:20.689Z,31.5
2018-01-15T11:01:48.616Z,19.3
2018-01-15T11:02:50.826Z,25.0
2018-01-15T11:03:52.516Z,28.7
2018-01-15T11:04:54.151Z,30.2
2018-01-15T11:05:56.306Z,30.6
2018-01-15T11:06:57.816Z,30.1
2018-01-15T11:07:59.462Z,32.2
2018-01-15T11:09:01.772Z,30.6
2018-01-15T11:10:03.536Z,31.4
2018-01-15T11:11:05.190Z,30.1
2018-01-15T11:12:07.909Z,30.4
2018-01-15T11:13:10.283Z,31.2
2018-01-15T11:14:11.931Z,32.7
2018-01-15T11:15:13.582Z,30.0
2018-01-15T11:16:15.235Z,31.7
2018-01-15T11:17:16.882Z,33.2
2018-01-15T11:18:19.723Z,32.3
2018-01-15T11:19:21.333Z,31.7
2018-01-15T11:20:22.990Z,32.0
2018-01-15T11:21:24.798Z,30.8
2018-01-15T11:22:26.452Z,30.0
2018-01-15T11:23:28.129Z,30.9
2018-01-15T11:24:29.747Z,31.7
2018-01-15T11:25:31.425Z,31.8
2018-01-15T11:26:33.040Z,31.7
2018-01-15T11:27:34.749Z,32.1
2018-01-15T11:28:36.397Z,30.2
2018-01-15T11:29:38.044Z,30.6
2018-01-15T11:30:39.738Z,31.3
2018-01-15T11:31:41.814Z,31.0
2018-01-15T11:32:43.471Z,31.8
2018-01-15T11:33:45.545Z,32.1
2018-01-15T11:34:47.268Z,32.0
2018-01-15T11:35:49.225Z,31.7
2018-01-15T11:36:50.882Z,30.7
2018-01-15T11:37:53.440Z,30.3
2018-01-15T11:38:55.073Z,32.4
2018-01-15T11:39:56.732Z,30.9
2018-01-15T11:40:58.402Z,32.8
2018-01-15T11:42:00.064Z,32.7
2018-01-15T11:43:01.715Z,32.1
2018-01-15T11:44:03.449Z,30.7
2018-01-15T11:45:05.104Z,31.8
2018-01-15T11:46:06.757Z,31.9
2018-01-15T11:47:08.418Z,32.0
2018-01-15T11:48:10.066Z,33.0
2018-01-15T11:49:11.722Z,31.6
2018-01-15T11:50:13.375Z,30.9
2018-01-15T11:51:15.031Z,31.8
2018-01-15T11:52:16.680Z,31.5
2018-01-15T11:53:18.328Z,31.8
2018-01-15T11:54:19.990Z,31.8
2018-01-15T11:55:21.654Z,29.8
2018-01-15T11:56:23.313Z,31.4
2018-01-15T11:57:24.972Z,32.0
2018-01-15T11:58:26.633Z,31.3
2018-01-15T11:59:28.285Z,31.2
2018-01-15T12:00:29.940Z,32.2
2018-01-15T12:01:31.590Z,29.2
2018-01-15T12:02:33.244Z,32.1
2018-01-15T12:03:34.893Z,34.4
2018-01-15T12:04:36.550Z,32.7
2018-01-15T12:05:38.197Z,33.1
2018-01-15T12:06:39.854Z,31.2
2018-01-15T12:07:41.509Z,31.4
2018-01-15T12:08:43.201Z,33.0
2018-01-15T12:09:44.812Z,32.6
2018-01-15T12:10:46.453Z,32.2
2018-01-15T12:11:48.110Z,32.7
2018-01-15T12:12:49.862Z,32.5
2018-01-15T12:13:51.521Z,32.0
2018-01-15T12:14:53.166Z,32.4
2018-01-15T12:15:54.882Z,30.8
2018-01-15T12:16:56.516Z,28.2
2018-01-15T12:17:58.176Z,31.1
2018-01-15T12:18:59.825Z,31.7
2018-01-15T12:20:01.480Z,30.7
2018-01-15T12:21:03.163Z,31.1
2018-01-15T12:22:04.882Z,31.5
2018-01-15T12:23:06.536Z,29.5
2018-01-15T12:24:08.186Z,30.4
2018-01-15T12:25:09.837Z,29.9
2018-01-15T12:26:11.490Z,30.4
2018-01-15T12:27:13.146Z,30.9
2018-01-15T12:28:14.802Z,31.1
2018-01-15T12:29:16.475Z,30.5
2018-01-15T12:30:18.127Z,27.5
2018-01-15T12:31:19.774Z,30.1
2018-01-15T12:32:21.438Z,29.3
2018-01-15T12:33:23.087Z,28.1
2018-01-15T12:34:24.777Z,27.6
2018-01-15T12:35:26.424Z,31.0
2018-01-15T12:36:28.075Z,31.5
2018-01-15T12:37:29.736Z,32.6
2018-01-15T12:38:31.394Z,28.3
2018-01-15T12:39:33.043Z,26.1
2018-01-15T12:40:34.732Z,29.3
2018-01-15T12:41:36.381Z,29.7
2018-01-15T12:42:38.038Z,28.8
2018-01-15T12:43:39.685Z,30.6
2018-01-15T12:44:41.338Z,30.5
2018-01-15T12:45:42.986Z,32.5
2018-01-15T12:46:44.648Z,30.7
2018-01-15T12:47:46.296Z,27.9
2018-01-15T12:48:47.945Z,25.8
2018-01-15T12:49:49.590Z,28.0
2018-01-15T12:50:51.245Z,27.9
2018-01-15T12:51:52.901Z,27.4
2018-01-15T12:52:54.556Z,31.9
2018-01-15T12:53:56.201Z,33.1
2018-01-15T12:54:57.861Z,33.7
2018-01-15T12:56:00.235Z,30.0
2018-01-15T12:57:01.890Z,24.4
2018-01-15T12:58:03.560Z,29.1
2018-01-15T12:59:05.210Z,31.5
2018-01-15T13:00:06.855Z,31.8
2018-01-15T13:01:08.507Z,35.3
2018-01-15T13:02:10.166Z,33.2
2018-01-15T13:03:11.825Z,34.8
2018-01-15T13:04:13.474Z,36.8
2018-01-15T13:05:15.135Z,35.9
2018-01-15T13:06:16.779Z,34.5
2018-01-15T13:07:18.439Z,36.1
2018-01-15T13:08:20.093Z,31.0
2018-01-15T13:09:21.757Z,33.1
2018-01-15T13:10:23.414Z,30.9
2018-01-15T13:11:25.065Z,29.1
2018-01-15T13:12:26.768Z,32.3
2018-01-15T13:13:28.375Z,32.1
2018-01-15T13:14:30.032Z,32.0
2018-01-15T13:15:31.687Z,32.9
2018-01-15T13:16:33.335Z,32.8
2018-01-15T13:17:34.998Z,31.9
2018-01-15T13:18:36.650Z,32.5
2018-01-15T13:19:38.306Z,32.4
2018-01-15T13:20:39.972Z,27.4
2018-01-15T13:21:41.640Z,27.4
2018-01-15T13:22:43.333Z,28.8
2018-01-15T13:23:44.984Z,28.9
2018-01-15T13:24:46.644Z,33.6
2018-01-15T13:25:48.307Z,30.6
2018-01-15T13:26:49.966Z,29.7
2018-01-15T13:27:51.610Z,27.4
2018-01-15T13:28:53.257Z,28.8
2018-01-15T13:29:54.909Z,28.2
2018-01-15T13:30:56.564Z,27.3
2018-01-15T13:31:58.216Z,32.5
2018-01-15T13:32:59.874Z,28.6
2018-01-15T13:34:01.529Z,31.9
2018-01-15T13:35:03.196Z,31.2
2018-01-15T13:36:04.913Z,31.3
2018-01-15T13:37:06.560Z,29.6
2018-01-15T13:38:08.342Z,30.6
2018-01-15T13:39:09.992Z,30.1
2018-01-15T13:40:11.646Z,27.7
2018-01-15T13:41:13.293Z,26.7
2018-01-15T13:42:14.953Z,33.3
2018-01-15T13:43:16.605Z,34.7
2018-01-15T13:44:18.294Z,33.4
2018-01-15T13:45:19.957Z,33.3
2018-01-15T13:46:21.604Z,31.8
2018-01-15T13:47:23.274Z,32.1
2018-01-15T13:48:24.925Z,32.8
2018-01-15T13:49:26.584Z,31.6
2018-01-15T13:50:28.233Z,33.2
2018-01-15T13:51:29.879Z,33.1
2018-01-15T13:52:31.541Z,32.7
2018-01-15T13:53:33.193Z,30.6
2018-01-15T13:54:34.854Z,30.9
2018-01-15T13:55:36.512Z,29.9
2018-01-15T13:56:38.164Z,30.4